Time;durP1;ratioP1;P1;durP2;ratioP2;P2;SDS_P1;SDS_P2;PMS_P1;PMS_P2;Temp;Humidity;BMP_temperature;BMP_pressure;BME280_temperature;BME280_humidity;BME280_pressure;Samples;Min_cycle;Max_cycle;Signal;HPM_P1;HPM_P2
2022/09/15 00:04:35;;;;;;;8.30;7.80;;;;;;;14.24;100.00;98700.50;10460949;28;20509;-72
2022/09/15 00:09:37;;;;;;;8.43;7.82;;;;;;;14.41;100.00;98707.28;10460347;28;20037;-72
2022/09/15 00:14:39;;;;;;;8.30;7.57;;;;;;;14.33;100.00;98699.88;10460732;28;20571;-71
2022/09/15 00:19:40;;;;;;;9.13;8.27;;;;;;;14.34;100.00;98703.38;10460531;28;20491;-71
2022/09/15 00:24:42;;;;;;;9.23;8.07;;;;;;;14.37;100.00;98713.75;10461893;28;20067;-71
2022/09/15 00:29:43;;;;;;;7.22;6.63;;;;;;;14.19;100.00;98710.56;10461260;28;20087;-71
2022/09/15 00:34:45;;;;;;;8.05;7.40;;;;;;;14.27;100.00;98715.31;10461476;28;20090;-71
2022/09/15 00:39:47;;;;;;;8.35;7.55;;;;;;;14.14;100.00;98712.66;10460722;28;20060;-72
2022/09/15 00:44:54;;;;;;;9.45;8.48;;;;;;;14.10;100.00;98703.25;10459432;28;20102;-72
2022/09/15 00:50:00;;;;;;;;;;;;;;;14.05;100.00;98708.84;10460494;28;20045;-71
2022/09/15 00:55:30;;;;;;;9.35;8.55;;;;;;;14.10;100.00;98719.94;10459824;28;19994;-71
2022/09/15 01:00:32;;;;;;;8.85;8.05;;;;;;;14.06;100.00;98726.38;10451778;28;20057;-72
2022/09/15 01:05:40;;;;;;;9.77;8.90;;;;;;;14.01;100.00;98736.41;10459181;28;20410;-72
2022/09/15 01:10:43;;;;;;;10.32;9.43;;;;;;;14.21;100.00;98727.16;10459071;28;20041;-72
2022/09/15 01:16:06;;;;;;;10.27;9.38;;;;;;;14.29;100.00;98734.56;10459337;28;20418;-72
2022/09/15 01:21:31;;;;;;;9.30;8.50;;;;;;;14.13;100.00;98738.25;10459405;28;20048;-72
2022/09/15 01:27:02;;;;;;;11.15;9.63;;;;;;;14.09;100.00;98738.56;10459499;28;20090;-72
2022/09/15 01:38:10;;;;;;;14.27;12.88;;;;;;;14.01;100.00;98748.78;10458966;28;20041;-72
2022/09/15 01:43:15;;;;;;;13.25;12.00;;;;;;;14.04;100.00;98736.22;10458763;28;20041;-72
2022/09/15 01:48:21;;;;;;;12.73;11.60;;;;;;;13.95;100.00;98734.19;10457980;28;20067;-73
2022/09/15 01:53:23;;;;;;;14.23;10.98;;;;;;;13.87;100.00;98737.34;10459063;28;20106;-73
2022/09/15 01:58:25;;;;;;;11.20;8.52;;;;;;;13.90;100.00;98736.28;10457609;28;20048;-73
2022/09/15 02:03:34;;;;;;;10.38;9.10;;;;;;;13.93;100.00;98732.59;10457939;28;20131;-73
2022/09/15 02:08:44;;;;;;;10.40;9.50;;;;;;;13.97;100.00;98737.56;10457609;28;20079;-73
2022/09/15 02:14:17;;;;;;;10.55;9.55;;;;;;;13.89;100.00;98735.41;10457525;28;20053;-71
2022/09/15 02:19:24;;;;;;;9.75;8.85;;;;;;;13.92;100.00;98736.19;10457749;28;20045;-71
2022/09/15 02:24:36;;;;;;;11.25;8.55;;;;;;;14.01;100.00;98744.34;10457678;28;20052;-72
2022/09/15 02:29:40;;;;;;;11.35;10.15;;;;;;;13.91;100.00;98745.06;10457523;28;20041;-71
2022/09/15 02:34:46;;;;;;;14.43;10.45;;;;;;;13.92;100.00;98754.69;10456236;28;20053;-72
2022/09/15 02:39:54;;;;;;;13.20;10.60;;;;;;;13.82;100.00;98744.72;10465814;28;20091;-71
2022/09/15 02:44:57;;;;;;;9.63;8.80;;;;;;;14.05;100.00;98750.28;10432568;28;20076;-72
2022/09/15 02:49:58;;;;;;;9.95;9.02;;;;;;;14.25;100.00;98751.56;10456419;28;20090;-71
2022/09/15 02:55:00;;;;;;;11.27;10.32;;;;;;;14.11;100.00;98749.84;10450162;28;20053;-71
2022/09/15 03:00:13;;;;;;;10.48;9.57;;;;;;;14.05;100.00;98742.34;10457172;28;20041;-71
2022/09/15 03:05:17;;;;;;;9.73;8.93;;;;;;;14.00;100.00;98744.44;10456615;28;20049;-71
2022/09/15 03:10:19;;;;;;;10.45;9.32;;;;;;;13.98;100.00;98748.97;10460197;28;20045;-71
2022/09/15 03:15:23;;;;;;;11.65;10.48;;;;;;;13.92;100.00;98744.94;10463147;28;20102;-71
2022/09/15 03:20:27;;;;;;;13.38;10.93;;;;;;;13.90;100.00;98741.56;10463236;28;20110;-72
2022/09/15 03:25:29;;;;;;;10.77;9.88;;;;;;;13.96;100.00;98751.72;10463864;28;20067;-72
2022/09/15 03:30:30;;;;;;;11.55;10.55;;;;;;;13.93;100.00;98751.91;10462650;28;20041;-72
2022/09/15 03:35:32;;;;;;;10.35;9.45;;;;;;;13.99;100.00;98750.66;10462144;28;20457;-72
2022/09/15 03:40:34;;;;;;;10.27;9.13;;;;;;;13.93;100.00;98736.06;10477236;28;20044;-71
2022/09/15 03:45:37;;;;;;;11.65;9.07;;;;;;;13.91;100.00;98735.34;10462405;28;20045;-71
2022/09/15 03:50:39;;;;;;;10.82;9.75;;;;;;;13.88;100.00;98744.28;10461811;28;20044;-72
2022/09/15 03:55:41;;;;;;;9.98;9.18;;;;;;;13.86;100.00;98748.84;10462197;28;20128;-71
2022/09/15 04:00:44;;;;;;;11.27;10.38;;;;;;;13.84;100.00;98742.81;10462421;28;20470;-71
2022/09/15 04:05:46;;;;;;;15.90;11.30;;;;;;;13.82;100.00;98750.00;10453294;28;20045;-71
2022/09/15 04:10:48;;;;;;;10.65;9.75;;;;;;;13.81;100.00;98739.50;10461556;28;20059;-71
2022/09/15 04:16:00;;;;;;;11.85;10.77;;;;;;;13.87;100.00;98755.81;10462210;28;20045;-71
2022/09/15 04:21:06;;;;;;;14.20;12.82;;;;;;;13.78;100.00;98742.38;10454162;28;20041;-71
2022/09/15 04:26:13;;;;;;;13.60;12.48;;;;;;;13.77;100.00;98745.97;10472833;28;20399;-71
2022/09/15 04:31:15;;;;;;;14.30;13.00;;;;;;;13.74;100.00;98743.53;10459289;28;20045;-71
2022/09/15 04:36:20;;;;;;;14.02;12.82;;;;;;;13.85;100.00;98754.22;10460225;28;20445;-71
2022/09/15 04:41:22;;;;;;;16.70;15.05;;;;;;;13.75;100.00;98750.50;10461220;28;20041;-71
2022/09/15 04:46:24;;;;;;;16.85;15.63;;;;;;;13.71;100.00;98755.13;10459802;28;20045;-71
2022/09/15 04:51:26;;;;;;;18.90;17.50;;;;;;;13.76;100.00;98749.53;10459376;28;20094;-71
2022/09/15 04:56:27;;;;;;;22.30;20.42;;;;;;;13.76;100.00;98749.53;10459848;28;20063;-71
2022/09/15 05:01:31;;;;;;;23.08;21.15;;;;;;;13.72;100.00;98753.31;10459422;28;20045;-72
2022/09/15 05:06:35;;;;;;;23.92;21.73;;;;;;;13.77;100.00;98748.63;10459193;28;20071;-71
2022/09/15 05:11:37;;;;;;;24.42;22.13;;;;;;;13.72;100.00;98753.31;10458840;28;20091;-71
2022/09/15 05:16:39;;;;;;;21.95;20.40;;;;;;;13.80;100.00;98762.44;10458048;28;20055;-72
2022/09/15 05:21:41;;;;;;;23.48;21.35;;;;;;;13.82;100.00;98771.13;10458716;28;20045;-71
2022/09/15 05:26:42;;;;;;;22.50;20.40;;;;;;;13.85;100.00;98775.34;10457913;28;20072;-71
2022/09/15 05:31:44;;;;;;;22.70;20.75;;;;;;;13.85;100.00;98770.06;10465230;28;20098;-72
2022/09/15 05:36:45;;;;;;;20.67;18.95;;;;;;;13.91;100.00;98769.69;10458535;28;20048;-72
2022/09/15 05:41:47;;;;;;;17.48;16.02;;;;;;;13.97;100.00;98779.00;10457199;28;20491;-72
2022/09/15 05:46:48;;;;;;;19.80;18.00;;;;;;;14.01;100.00;98788.41;10448733;28;20048;-72
2022/09/15 05:51:50;;;;;;;19.13;17.63;;;;;;;14.03;100.00;98778.56;10458093;28;20056;-72
2022/09/15 05:56:52;;;;;;;19.13;17.30;;;;;;;14.08;100.00;98782.63;10466853;28;20465;-72
2022/09/15 06:01:54;;;;;;;17.63;15.98;;;;;;;14.23;100.00;98780.75;10455548;28;20037;-71
2022/09/15 06:06:55;;;;;;;11.52;10.63;;;;;;;14.32;100.00;98779.28;10452905;28;20079;-70
2022/09/15 06:11:57;;;;;;;12.40;10.65;;;;;;;14.32;100.00;98790.72;10452564;28;20407;-70
2022/09/15 06:16:59;;;;;;;9.23;8.02;;;;;;;14.70;100.00;98799.66;10454714;28;20045;-72
2022/09/15 06:22:00;;;;;;;9.52;7.75;;;;;;;14.78;100.00;98802.63;10456800;28;20040;-72
2022/09/15 06:27:02;;;;;;;7.93;6.70;;;;;;;14.75;100.00;98806.34;10456437;28;20041;-71
2022/09/15 06:32:04;;;;;;;6.00;5.32;;;;;;;14.79;100.00;98791.13;10467085;28;20048;-71
2022/09/15 06:37:06;;;;;;;7.60;6.15;;;;;;;14.82;100.00;98789.09;10457375;28;20410;-71
2022/09/15 06:42:10;;;;;;;8.13;5.80;;;;;;;14.85;100.00;98788.91;10455890;28;20045;-71
2022/09/15 06:47:15;;;;;;;8.23;6.10;;;;;;;14.74;100.00;98788.81;10464419;28;20045;-71
2022/09/15 06:52:17;;;;;;;7.97;5.18;;;;;;;14.96;100.00;98787.28;10464772;28;20041;-71
2022/09/15 06:57:18;;;;;;;10.38;5.70;;;;;;;15.08;100.00;98786.44;10476681;28;20037;-71
2022/09/15 07:02:20;;;;;;;8.32;5.75;;;;;;;15.47;98.67;98806.63;10463798;28;20509;-71
2022/09/15 07:07:22;;;;;;;7.45;4.95;;;;;;;15.34;97.84;98796.03;10477156;28;20491;-72
2022/09/15 07:12:23;;;;;;;8.43;4.90;;;;;;;15.42;95.83;98802.59;10460009;28;20056;-72
2022/09/15 07:17:26;;;;;;;9.27;5.65;;;;;;;15.46;96.18;98804.09;10464286;28;20047;-72
2022/09/15 07:22:27;;;;;;;11.85;5.70;;;;;;;15.33;98.14;98799.66;10465595;28;20120;-74
2022/09/15 07:27:30;;;;;;;7.80;5.50;;;;;;;15.13;100.00;98806.34;10464829;28;20051;-74
2022/09/15 07:32:32;;;;;;;10.65;5.55;;;;;;;15.49;99.24;98807.34;10464757;28;20378;-72
2022/09/15 07:37:34;;;;;;;7.72;5.75;;;;;;;15.63;99.98;98811.66;10478832;28;20048;-73
2022/09/15 07:42:36;;;;;;;8.20;5.53;;;;;;;15.66;96.70;98824.72;10464035;28;20044;-73
2022/09/15 07:47:38;;;;;;;8.32;5.68;;;;;;;15.97;91.78;98830.44;10464309;28;20041;-74
2022/09/15 07:52:40;;;;;;;8.40;5.57;;;;;;;15.70;99.26;98826.19;10462473;28;20074;-73
2022/09/15 07:57:41;;;;;;;7.97;4.20;;;;;;;15.79;98.42;98827.31;10461902;28;20110;-74
2022/09/15 08:02:43;;;;;;;7.75;3.45;;;;;;;16.21;89.29;98841.06;10463585;28;20041;-73
2022/09/15 08:07:44;;;;;;;6.97;4.55;;;;;;;16.23;87.49;98833.81;10462956;28;20061;-74
2022/09/15 08:12:46;;;;;;;7.03;3.90;;;;;;;16.09;88.38;98845.44;10463766;28;20041;-74
2022/09/15 08:17:47;;;;;;;9.20;3.50;;;;;;;16.15;85.75;98834.38;10463479;28;20049;-74
2022/09/15 08:22:49;;;;;;;8.40;4.78;;;;;;;16.13;88.56;98853.06;10463444;28;20049;-74
2022/09/15 08:27:52;;;;;;;8.07;5.68;;;;;;;15.75;90.97;98841.75;10463343;28;20128;-74
2022/09/15 08:32:54;;;;;;;7.68;5.90;;;;;;;15.76;92.75;98843.44;10463639;28;20094;-74
2022/09/15 08:37:56;;;;;;;8.13;7.38;;;;;;;15.63;92.77;98851.41;10462971;28;20057;-74
2022/09/15 08:43:15;;;;;;;9.98;9.07;;;;;;;15.69;91.13;98858.94;10454210;28;20426;-74
2022/09/15 08:48:23;;;;;;;8.77;7.88;;;;;;;15.73;89.00;98864.88;10462110;28;20049;-75
2022/09/15 08:53:31;;;;;;;7.13;6.43;;;;;;;16.04;89.30;98871.44;10462432;28;20506;-74
2022/09/15 08:58:36;;;;;;;9.02;5.53;;;;;;;16.25;85.54;98875.19;10461412;28;20391;-74
2022/09/15 09:03:57;;;;;;;8.50;4.18;;;;;;;16.50;80.14;98860.94;10461901;28;20048;-73
2022/09/15 09:09:14;;;;;;;7.03;4.85;;;;;;;16.77;82.15;98873.13;10460924;28;20037;-74
2022/09/15 09:14:38;;;;;;;8.32;3.55;;;;;;;16.70;77.03;98872.72;10473719;28;20095;-74
2022/09/15 09:19:55;;;;;;;7.80;4.28;;;;;;;16.64;76.43;98868.72;10460866;28;20061;-74
2022/09/15 09:24:59;;;;;;;6.93;3.30;;;;;;;16.61;80.15;98862.81;10461017;28;20048;-74
2022/09/15 09:30:19;;;;;;;9.07;3.00;;;;;;;16.74;77.35;98863.59;10459159;28;20045;-74
2022/09/15 09:35:35;;;;;;;4.30;2.60;;;;;;;16.81;78.32;98863.97;10459222;28;20045;-74
2022/09/15 09:40:40;;;;;;;4.25;2.22;;;;;;;16.59;75.46;98859.41;10420675;28;20116;-74
2022/09/15 09:45:41;;;;;;;4.28;2.47;;;;;;;16.67;76.43;98872.09;10420685;28;20053;-74
2022/09/15 09:50:43;;;;;;;4.68;2.03;;;;;;;16.80;73.13;98856.97;10420495;28;20499;-74
2022/09/15 09:55:45;;;;;;;4.97;2.15;;;;;;;16.77;72.71;98860.69;10448741;28;20079;-73
2022/09/15 10:00:47;;;;;;;5.13;2.30;;;;;;;16.58;76.00;98863.88;10460693;28;20044;-73
2022/09/15 10:06:17;;;;;;;4.90;2.08;;;;;;;16.48;77.10;98860.22;10461014;28;20048;-74
2022/09/15 10:11:19;;;;;;;4.32;1.60;;;;;;;16.34;76.55;98855.94;10461188;28;20041;-73
2022/09/15 10:16:21;;;;;;;4.53;1.90;;;;;;;16.10;80.62;98863.03;10461134;28;20083;-73
2022/09/15 10:21:24;;;;;;;5.55;2.28;;;;;;;15.95;80.71;98862.38;10469690;28;20045;-73
2022/09/15 10:26:33;;;;;;;4.80;1.38;;;;;;;15.97;78.54;98862.25;10470269;28;20045;-73
2022/09/15 10:31:35;;;;;;;5.90;1.63;;;;;;;16.05;80.02;98858.06;10468468;28;20037;-73
2022/09/15 10:36:37;;;;;;;4.13;1.42;;;;;;;16.22;78.79;98862.16;10469027;28;20049;-73
2022/09/15 10:41:50;;;;;;;3.85;1.52;;;;;;;16.43;76.63;98864.19;10468022;28;20041;-73
2022/09/15 10:47:34;;;;;;;4.63;2.20;;;;;;;16.45;76.99;98864.91;10468746;28;20049;-73
2022/09/15 10:52:45;;;;;;;5.72;2.10;;;;;;;16.82;75.24;98855.03;10454766;28;20057;-74
2022/09/15 10:58:09;;;;;;;5.47;2.10;;;;;;;16.72;76.25;98854.03;10466460;28;20095;-73
2022/09/15 11:03:13;;;;;;;3.20;1.80;;;;;;;17.26;75.85;98853.41;10464312;28;20041;-73
2022/09/15 11:08:19;;;;;;;4.25;1.83;;;;;;;17.50;73.74;98855.97;10465920;28;20098;-73
2022/09/15 11:13:40;;;;;;;3.33;1.80;;;;;;;17.50;69.39;98845.34;10465499;28;20049;-74
2022/09/15 11:18:51;;;;;;;5.18;1.80;;;;;;;17.70;71.27;98846.41;10464457;28;20045;-73
2022/09/15 11:24:22;;;;;;;3.85;2.00;;;;;;;17.70;68.98;98851.72;10464156;28;20076;-74
2022/09/15 11:29:33;;;;;;;4.28;1.50;;;;;;;17.64;68.03;98845.09;10463063;28;20037;-73
2022/09/15 11:34:47;;;;;;;5.30;1.88;;;;;;;17.75;70.82;98839.81;10463744;28;20044;-74
2022/09/15 11:39:49;;;;;;;3.50;1.45;;;;;;;17.90;68.13;98843.03;10463128;28;20083;-74
2022/09/15 11:44:52;;;;;;;5.75;1.60;;;;;;;18.29;68.67;98832.78;10463352;28;20045;-74
2022/09/15 11:50:00;;;;;;;3.33;1.60;;;;;;;18.55;63.68;98827.94;10445893;28;20048;-73
2022/09/15 11:55:14;;;;;;;3.17;1.48;;;;;;;18.40;65.77;98838.03;10464267;28;20094;-74
2022/09/15 12:00:16;;;;;;;5.10;1.77;;;;;;;18.11;64.12;98835.97;10463045;28;20051;-73
2022/09/15 12:05:26;;;;;;;4.80;1.52;;;;;;;18.07;64.83;98844.34;10463271;28;20095;-74
2022/09/15 12:10:34;;;;;;;5.45;1.85;;;;;;;18.20;61.55;98823.75;10469970;28;20048;-75
2022/09/15 12:15:38;;;;;;;5.30;1.40;;;;;;;18.05;65.23;98833.81;10468267;28;20079;-75
2022/09/15 12:20:49;;;;;;;5.32;1.58;;;;;;;18.20;64.43;98821.09;10468175;28;20045;-74
2022/09/15 12:26:06;;;;;;;2.90;1.50;;;;;;;18.02;63.32;98834.06;10464938;28;20486;-74
2022/09/15 12:31:25;;;;;;;3.28;1.55;;;;;;;17.86;61.07;98818.50;10465168;28;20041;-75
2022/09/15 12:36:36;;;;;;;3.17;1.50;;;;;;;17.85;63.67;98831.94;10465862;28;20521;-73
2022/09/15 12:41:55;;;;;;;4.53;2.30;;;;;;;17.76;65.35;98828.22;10465407;28;20090;-75
2022/09/15 12:46:59;;;;;;;2.63;1.80;;;;;;;17.61;64.94;98824.91;10462274;28;20044;-75
2022/09/15 12:52:06;;;;;;;2.80;1.75;;;;;;;17.79;63.86;98821.78;10462070;28;20045;-74
2022/09/15 12:57:31;;;;;;;3.97;1.50;;;;;;;17.73;63.06;98832.88;10462562;28;20192;-73
2022/09/15 13:02:44;;;;;;;4.28;1.48;;;;;;;17.54;65.98;98826.41;10462836;28;20090;-74
2022/09/15 13:07:55;;;;;;;7.47;1.67;;;;;;;17.39;64.04;98835.56;10460165;28;20040;-73
2022/09/15 13:13:21;;;;;;;4.18;1.58;;;;;;;17.30;66.90;98829.16;10460168;28;20044;-73
2022/09/15 13:18:25;;;;;;;2.92;1.55;;;;;;;17.20;67.53;98824.69;10460170;28;20072;-74
2022/09/15 13:23:32;;;;;;;1.80;1.40;;;;;;;17.19;66.04;98833.63;10460626;28;20475;-74
2022/09/15 13:28:35;;;;;;;2.35;1.60;;;;;;;16.89;70.71;98840.34;10459258;28;20041;-74
2022/09/15 13:33:51;;;;;;;2.90;1.52;;;;;;;16.77;71.49;98839.47;10460403;28;20384;-74
2022/09/15 13:39:43;;;;;;;1.93;1.43;;;;;;;16.77;69.37;98844.78;10459220;28;20518;-74
2022/09/15 13:44:56;;;;;;;3.00;1.80;;;;;;;16.60;74.96;98845.16;10441132;28;20288;-74
2022/09/15 13:50:23;;;;;;;3.40;2.45;;;;;;;15.83;79.51;98855.28;10457677;28;20045;-73
2022/09/15 13:55:26;;;;;;;;;;;;;;;15.55;81.48;98865.19;10457822;28;20387;-74
2022/09/15 14:00:42;;;;;;;4.28;1.55;;;;;;;15.34;79.58;98861.41;10457913;28;19978;-74
2022/09/15 14:05:44;;;;;;;4.13;1.53;;;;;;;15.10;81.88;98845.44;10458539;28;20060;-74
2022/09/15 14:10:52;;;;;;;3.03;1.70;;;;;;;15.31;80.58;98846.56;10457386;28;20049;-74
2022/09/15 14:15:57;;;;;;;4.82;1.80;;;;;;;15.25;81.75;98847.00;10457301;28;20108;-74
2022/09/15 14:21:01;;;;;;;1.92;1.70;;;;;;;15.36;82.95;98848.88;10456633;28;20044;-75
2022/09/15 14:26:03;;;;;;;2.97;2.20;;;;;;;15.44;83.52;98845.69;10457180;28;20049;-73
2022/09/15 14:31:05;;;;;;;4.25;1.85;;;;;;;15.46;84.67;98855.25;10456767;28;20041;-74
2022/09/15 14:36:21;;;;;;;5.28;1.67;;;;;;;15.47;81.29;98856.94;10456370;28;20049;-74
2022/09/15 14:41:23;;;;;;;5.22;1.52;;;;;;;15.56;80.54;98856.28;10457180;28;20515;-73
2022/09/15 14:46:35;;;;;;;5.45;1.40;;;;;;;15.68;78.30;98867.00;10456293;28;20045;-76
2022/09/15 14:51:37;;;;;;;3.38;1.65;;;;;;;15.78;73.47;98863.56;10456813;28;20072;-73
2022/09/15 14:56:42;;;;;;;3.35;1.10;;;;;;;15.83;73.88;98856.13;10457423;28;20442;-75
2022/09/15 15:01:58;;;;;;;2.40;1.10;;;;;;;15.85;73.44;98854.25;10456882;28;20076;-76
2022/09/15 15:07:04;;;;;;;;;;;;;;;15.83;73.19;98850.00;10462285;28;20044;-74
2022/09/15 15:12:20;;;;;;;1.67;1.08;;;;;;;16.00;72.42;98854.91;10464396;28;20432;-75
2022/09/15 15:17:35;;;;;;;3.35;1.10;;;;;;;16.10;71.75;98844.47;10463672;28;20044;-75
2022/09/15 15:22:38;;;;;;;2.85;1.40;;;;;;;16.07;72.65;98831.44;10464768;28;20044;-74
2022/09/15 15:27:40;;;;;;;2.67;0.98;;;;;;;16.17;68.66;98831.63;10463609;28;20060;-75
2022/09/15 15:32:42;;;;;;;3.92;1.20;;;;;;;16.01;69.64;98837.22;10466500;28;20041;-75
2022/09/15 15:37:46;;;;;;;2.83;1.20;;;;;;;15.87;71.21;98835.56;10463513;28;20056;-75
2022/09/15 15:43:22;;;;;;;2.17;1.10;;;;;;;15.70;72.89;98836.78;10462851;28;20049;-75
2022/09/15 15:48:25;;;;;;;3.30;1.13;;;;;;;15.70;73.39;98831.47;10463514;28;20052;-74
2022/09/15 15:53:27;;;;;;;3.00;1.20;;;;;;;15.82;73.30;98840.34;10462934;28;20033;-75
2022/09/15 15:58:28;;;;;;;2.50;1.10;;;;;;;15.61;75.34;98843.53;10464117;28;20406;-74
2022/09/15 16:03:30;;;;;;;4.32;1.35;;;;;;;15.63;75.38;98844.31;10462688;28;20033;-74
2022/09/15 16:08:36;;;;;;;2.53;1.15;;;;;;;15.75;74.16;98839.94;10461075;28;20489;-74
2022/09/15 16:13:38;;;;;;;2.53;1.02;;;;;;;15.75;73.90;98834.63;10462386;28;20453;-75
2022/09/15 16:18:40;;;;;;;3.58;0.90;;;;;;;15.91;72.51;98842.34;10453400;28;20053;-74
2022/09/15 16:23:41;;;;;;;2.30;1.00;;;;;;;15.93;71.55;98850.16;10463023;28;20041;-74
2022/09/15 16:28:43;;;;;;;2.70;1.10;;;;;;;15.97;70.37;98841.88;10461735;28;20053;-75
2022/09/15 16:33:45;;;;;;;2.55;0.90;;;;;;;15.88;68.63;98837.25;10461841;28;20064;-75
2022/09/15 16:38:46;;;;;;;2.50;0.90;;;;;;;15.88;69.55;98853.16;10462658;28;20048;-75
2022/09/15 16:43:48;;;;;;;2.60;1.10;;;;;;;15.75;71.17;98861.13;10461850;28;20037;-74
2022/09/15 16:48:50;;;;;;;2.80;1.00;;;;;;;15.53;73.96;98858.28;10461639;28;20498;-74
2022/09/15 16:53:52;;;;;;;2.28;1.02;;;;;;;15.76;73.05;98848.72;10461029;28;20041;-74
2022/09/15 16:58:55;;;;;;;3.58;1.20;;;;;;;15.72;73.82;98857.88;10461743;28;20514;-74
2022/09/15 17:04:02;;;;;;;4.22;1.20;;;;;;;15.62;75.56;98862.94;10461552;28;20044;-74
2022/09/15 17:09:04;;;;;;;2.88;1.30;;;;;;;15.38;77.35;98853.13;10462244;28;20055;-75
2022/09/15 17:14:06;;;;;;;4.22;1.38;;;;;;;15.40;77.81;98858.31;10461694;28;20041;-74
2022/09/15 17:19:07;;;;;;;2.80;1.55;;;;;;;15.35;78.15;98863.09;10462013;28;20052;-74
2022/09/15 17:24:09;;;;;;;2.15;1.13;;;;;;;15.65;76.95;98870.69;10461041;28;20466;-74
2022/09/15 17:29:11;;;;;;;4.00;1.75;;;;;;;15.52;78.21;98877.78;10460247;28;20053;-75
2022/09/15 17:34:13;;;;;;;2.55;1.92;;;;;;;15.43;78.33;98879.28;10460689;28;20133;-75
2022/09/15 17:39:14;;;;;;;5.15;1.77;;;;;;;15.53;77.92;98884.78;10458717;28;20520;-74
2022/09/15 17:44:16;;;;;;;2.38;1.60;;;;;;;15.30;79.18;98887.22;10458721;28;20094;-74
2022/09/15 17:49:17;;;;;;;3.80;1.92;;;;;;;15.21;77.96;98882.56;10459195;28;20090;-75
2022/09/15 17:54:19;;;;;;;1.77;1.52;;;;;;;15.26;76.45;98885.75;10459612;28;20402;-74
2022/09/15 17:59:21;;;;;;;2.20;1.70;;;;;;;15.27;74.48;98884.81;10458509;28;20040;-73
2022/09/15 18:04:22;;;;;;;5.78;1.80;;;;;;;15.30;73.38;98883.75;10458423;28;20132;-73
2022/09/15 18:09:24;;;;;;;2.70;1.40;;;;;;;15.11;74.39;98877.06;10458885;28;20044;-74
2022/09/15 18:14:26;;;;;;;4.53;1.60;;;;;;;14.93;74.92;98894.22;10459513;28;20064;-74
2022/09/15 18:19:27;;;;;;;3.20;1.30;;;;;;;14.86;75.88;98898.22;10458383;28;20154;-74
2022/09/15 18:24:29;;;;;;;2.63;1.60;;;;;;;14.68;77.35;98907.38;10456328;28;20450;-74
2022/09/15 18:29:31;;;;;;;2.80;1.77;;;;;;;14.55;78.16;98908.19;10459260;28;20049;-74
2022/09/15 18:34:32;;;;;;;1.98;1.60;;;;;;;14.56;78.00;98906.38;10458875;28;20045;-74
2022/09/15 18:39:34;;;;;;;2.53;1.40;;;;;;;14.57;77.25;98900.19;10444195;28;20072;-73
2022/09/15 18:44:36;;;;;;;3.90;1.70;;;;;;;14.52;77.75;98915.47;10467876;28;20033;-75
2022/09/15 18:49:37;;;;;;;4.93;1.67;;;;;;;14.42;77.04;98909.91;10466850;28;20044;-73
2022/09/15 18:54:39;;;;;;;2.50;1.38;;;;;;;14.47;74.94;98914.91;10465503;28;20483;-74
2022/09/15 18:59:40;;;;;;;3.47;1.67;;;;;;;14.54;73.90;98926.81;10465458;28;20083;-74
2022/09/15 19:04:43;;;;;;;2.55;1.00;;;;;;;14.57;72.63;98932.75;10456232;28;20040;-74
2022/09/15 19:09:44;;;;;;;2.42;1.10;;;;;;;14.41;73.95;98926.72;10465496;28;20060;-74
2022/09/15 19:14:47;;;;;;;2.95;1.35;;;;;;;14.37;74.44;98922.59;10477496;22;21439;-74
2022/09/15 19:19:48;;;;;;;2.65;1.30;;;;;;;14.35;74.42;98933.28;10465593;28;20080;-73
2022/09/15 19:24:50;;;;;;;3.67;1.52;;;;;;;14.32;75.63;98936.09;10454712;28;20449;-73
2022/09/15 19:29:52;;;;;;;3.00;1.40;;;;;;;14.42;74.31;98931.06;10510137;28;20413;-74
2022/09/15 19:34:54;;;;;;;2.97;1.10;;;;;;;14.43;72.95;98930.09;10507587;28;20087;-74
2022/09/15 19:39:55;;;;;;;2.55;1.25;;;;;;;14.42;72.79;98932.84;10508500;28;20041;-73
2022/09/15 19:44:57;;;;;;;3.33;1.08;;;;;;;14.34;73.60;98933.34;10506317;28;20051;-74
2022/09/15 19:49:59;;;;;;;4.13;1.38;;;;;;;14.39;72.90;98939.22;10507655;28;20040;-73
2022/09/15 19:55:01;;;;;;;2.33;1.10;;;;;;;14.45;72.90;98936.16;10507443;28;20048;-72
2022/09/15 20:00:04;;;;;;;5.80;1.35;;;;;;;14.46;72.67;98932.56;10489783;28;20148;-71
2022/09/15 20:05:07;;;;;;;3.45;1.52;;;;;;;14.33;74.22;98937.78;10487643;28;20044;-71
2022/09/15 20:10:09;;;;;;;2.85;1.33;;;;;;;14.09;74.75;98939.38;10504568;28;20049;-71
2022/09/15 20:15:11;;;;;;;3.50;1.30;;;;;;;14.30;73.26;98951.22;10508245;28;20075;-72
2022/09/15 20:20:12;;;;;;;2.00;0.98;;;;;;;14.46;71.89;98950.22;10504833;28;20044;-72
2022/09/15 20:25:14;;;;;;;2.35;0.70;;;;;;;14.41;71.72;98952.31;10504591;28;20087;-71
2022/09/15 20:30:16;;;;;;;2.95;1.15;;;;;;;14.41;71.40;98947.88;10503884;28;20049;-71
2022/09/15 20:35:17;;;;;;;1.08;0.70;;;;;;;14.43;71.32;98948.59;10507353;28;20061;-71
2022/09/15 20:40:19;;;;;;;6.57;1.30;;;;;;;14.41;71.47;98941.75;10502744;28;20520;-74
2022/09/15 20:45:21;;;;;;;2.63;0.70;;;;;;;14.53;70.13;98941.84;10502200;28;20106;-71
2022/09/15 20:50:22;;;;;;;2.88;0.80;;;;;;;14.38;71.14;98942.78;10501956;28;20044;-71
2022/09/15 20:55:24;;;;;;;1.63;0.90;;;;;;;14.45;71.07;98953.81;10502834;28;20052;-71
2022/09/15 21:00:26;;;;;;;2.08;0.77;;;;;;;14.53;70.30;98962.13;10501086;28;20135;-71
2022/09/15 21:05:34;;;;;;;3.60;1.00;;;;;;;14.51;70.66;98967.50;10481760;28;20052;-71
2022/09/15 21:10:38;;;;;;;5.32;0.80;;;;;;;14.51;70.38;98975.44;10483248;28;20040;-70
2022/09/15 21:15:39;;;;;;;4.97;1.20;;;;;;;14.47;73.06;98973.91;10482106;28;20059;-70
2022/09/15 21:20:41;;;;;;;2.90;0.70;;;;;;;14.26;75.44;98984.09;10484307;28;20048;-70
2022/09/15 21:25:43;;;;;;;1.83;0.70;;;;;;;14.12;77.95;98981.44;10482807;28;20044;-71
2022/09/15 21:30:45;;;;;;;1.83;0.70;;;;;;;14.02;78.72;98975.06;10500811;28;20400;-70
2022/09/15 21:35:48;;;;;;;2.75;1.00;;;;;;;13.97;79.62;98979.78;10499129;28;20048;-70
2022/09/15 21:40:49;;;;;;;3.97;0.90;;;;;;;13.94;80.11;98985.25;10500602;28;20045;-70
2022/09/15 21:45:55;;;;;;;2.50;0.75;;;;;;;13.82;80.94;98995.63;10499433;28;20048;-71
2022/09/15 21:50:57;;;;;;;4.83;0.90;;;;;;;13.94;78.94;98996.66;10499046;28;20037;-70
2022/09/15 21:56:04;;;;;;;1.65;0.80;;;;;;;13.82;80.45;98992.16;10498314;28;20072;-71
2022/09/15 22:01:14;;;;;;;4.70;0.80;;;;;;;13.89;79.58;99006.66;10499733;28;20044;-70
2022/09/15 22:06:17;;;;;;;3.30;0.88;;;;;;;13.83;79.49;99007.06;10498881;28;20070;-70
2022/09/15 22:11:18;;;;;;;6.00;0.82;;;;;;;13.65;81.46;99016.94;10497999;28;20067;-70
2022/09/15 22:16:22;;;;;;;1.75;0.70;;;;;;;13.47;83.13;99018.06;10508299;28;20052;-70
2022/09/15 22:21:30;;;;;;;2.13;0.70;;;;;;;13.46;83.88;99022.50;10511228;28;20478;-70
2022/09/15 22:26:34;;;;;;;1.77;0.77;;;;;;;13.78;81.89;99001.22;10512709;28;20086;-71
2022/09/15 22:31:37;;;;;;;2.53;0.70;;;;;;;13.76;80.19;99000.44;10511478;28;20387;-71
2022/09/15 22:36:38;;;;;;;1.73;0.52;;;;;;;13.89;77.24;99010.16;10511202;28;20052;-71
2022/09/15 22:41:40;;;;;;;2.20;0.80;;;;;;;13.91;77.27;99011.88;10502782;28;20094;-71
2022/09/15 22:46:41;;;;;;;5.20;1.10;;;;;;;14.05;75.94;99010.06;10495819;28;20052;-71
2022/09/15 22:51:44;;;;;;;2.58;0.60;;;;;;;14.11;74.11;99011.47;10511132;28;20052;-71
2022/09/15 22:56:46;;;;;;;1.90;0.70;;;;;;;14.06;74.63;99022.31;10512231;28;20083;-71
2022/09/15 23:01:47;;;;;;;1.42;0.60;;;;;;;13.92;77.64;99030.25;10511650;28;20051;-71
2022/09/15 23:06:50;;;;;;;1.40;0.70;;;;;;;13.94;78.79;99028.34;10512260;28;20045;-71
2022/09/15 23:11:52;;;;;;;2.53;0.77;;;;;;;13.70;80.03;99033.34;10511606;28;20080;-71
2022/09/15 23:16:53;;;;;;;3.63;0.70;;;;;;;13.71;79.93;99034.19;10511836;28;20067;-72
2022/09/15 23:21:55;;;;;;;2.58;0.88;;;;;;;13.68;79.02;99048.47;10510713;28;20079;-72
2022/09/15 23:26:57;;;;;;;3.15;0.68;;;;;;;13.73;80.20;99051.66;10506202;28;20096;-72
2022/09/15 23:31:58;;;;;;;4.28;0.65;;;;;;;13.65;79.36;99043.34;10506461;28;20033;-72
2022/09/15 23:37:00;;;;;;;1.52;0.60;;;;;;;13.48;81.32;99052.28;10504343;28;20063;-72
2022/09/15 23:42:02;;;;;;;2.10;0.50;;;;;;;13.73;76.71;99040.25;10505330;28;20043;-72